Time;durP1;ratioP1;P1;durP2;ratioP2;P2;SDS_P1;SDS_P2;PMS_P1;PMS_P2;Temp;Humidity;BMP_temperature;BMP_pressure;BME280_temperature;BME280_humidity;BME280_pressure;Samples;Min_cycle;Max_cycle;Signal;HPM_P1;HPM_P2
2022/04/02 00:01:43;;;;;;;4.53;2.40;;;4.90;94.70;;;;;;5083770;28;20308;-81
2022/04/02 00:04:11;;;;;;;4.03;2.00;;;5.00;94.80;;;;;;5087711;28;20245;-81
2022/04/02 00:06:38;;;;;;;4.78;2.00;;;5.00;94.80;;;;;;5082750;28;20203;-80
2022/04/02 00:09:05;;;;;;;4.63;2.30;;;4.90;95.00;;;;;;5089195;28;20225;-80
2022/04/02 00:11:34;;;;;;;3.10;2.28;;;4.90;95.20;;;;;;5078202;28;20791;-82
2022/04/02 00:14:01;;;;;;;3.63;2.35;;;4.90;95.50;;;;;;5090863;28;20638;-80
2022/04/02 00:16:27;;;;;;;3.03;2.03;;;4.90;95.50;;;;;;5079552;28;20290;-80
2022/04/02 00:18:54;;;;;;;8.38;2.72;;;4.90;95.50;;;;;;5080624;28;20219;-79
2022/04/02 00:21:21;;;;;;;3.80;2.17;;;4.90;95.70;;;;;;5078137;28;20266;-80
2022/04/02 00:23:48;;;;;;;3.38;2.05;;;4.80;95.90;;;;;;5081685;28;20209;-80
2022/04/02 00:26:17;;;;;;;3.30;2.05;;;4.80;95.90;;;;;;5084563;28;20328;-81
2022/04/02 00:28:48;;;;;;;4.47;2.40;;;4.80;96.20;;;;;;5093468;28;20222;-80
2022/04/02 00:31:15;;;;;;;8.73;2.47;;;4.80;96.10;;;;;;5084814;28;20259;-81
2022/04/02 00:33:43;;;;;;;5.22;2.03;;;4.80;96.30;;;;;;5086663;28;20214;-81
2022/04/02 00:36:11;;;;;;;3.10;2.20;;;4.70;96.40;;;;;;5090268;28;20233;-82
2022/04/02 00:38:39;;;;;;;7.85;2.20;;;4.70;96.70;;;;;;5083135;28;20205;-80
2022/04/02 00:41:07;;;;;;;4.85;2.65;;;4.70;96.80;;;;;;5099880;28;20273;-82
2022/04/02 00:43:36;;;;;;;4.10;2.55;;;4.70;96.70;;;;;;5103362;28;20249;-80
2022/04/02 00:46:07;;;;;;;3.17;1.70;;;4.70;96.70;;;;;;5092629;28;20283;-81
2022/04/02 00:48:34;;;;;;;3.47;2.20;;;4.80;96.80;;;;;;5080074;28;20211;-82
2022/04/02 00:51:03;;;;;;;3.30;2.42;;;4.70;96.90;;;;;;5081443;28;20222;-82
2022/04/02 00:53:32;;;;;;;5.13;2.55;;;4.70;96.90;;;;;;5082453;28;20309;-81
2022/04/02 00:55:59;;;;;;;5.15;2.10;;;4.70;97.00;;;;;;5091296;28;20210;-81
2022/04/02 00:58:26;;;;;;;3.42;2.10;;;4.70;97.10;;;;;;5085462;28;20467;-82
2022/04/02 01:00:53;;;;;;;3.85;2.45;;;4.70;97.20;;;;;;5081462;28;20277;-81
2022/04/02 01:03:21;;;;;;;3.50;2.53;;;4.70;97.20;;;;;;5090478;28;20298;-80
2022/04/02 01:08:33;;;;;;;3.28;1.70;;;4.70;97.30;;;;;;5082435;28;20210;-81
2022/04/02 01:11:00;;;;;;;3.47;2.20;;;4.70;97.30;;;;;;5090759;28;20229;-81
2022/04/02 01:13:27;;;;;;;2.92;2.20;;;4.60;97.50;;;;;;5090104;28;20258;-81
2022/04/02 01:15:56;;;;;;;4.05;2.08;;;4.60;97.70;;;;;;5086083;28;20203;-80
2022/04/02 01:18:24;;;;;;;4.45;2.65;;;4.60;98.00;;;;;;5088823;28;20198;-81
2022/04/02 01:20:52;;;;;;;5.93;2.42;;;4.50;98.00;;;;;;5093246;28;20266;-81
2022/04/02 01:23:28;;;;;;;5.82;2.22;;;4.50;98.20;;;;;;5089995;28;20225;-79
2022/04/02 01:25:54;;;;;;;4.20;2.20;;;4.50;98.50;;;;;;5092685;28;20194;-80
2022/04/02 01:28:21;;;;;;;4.30;2.80;;;4.50;98.50;;;;;;5080348;28;20238;-79
2022/04/02 01:30:48;;;;;;;5.18;2.35;;;4.60;98.50;;;;;;5085172;28;20268;-81
2022/04/02 01:33:15;;;;;;;5.40;2.50;;;4.50;98.70;;;;;;5096807;28;20203;-81
2022/04/02 01:35:42;;;;;;;4.03;3.00;;;4.50;98.70;;;;;;5094802;28;20183;-80
2022/04/02 01:38:09;;;;;;;2.83;1.95;;;4.50;98.70;;;;;;5097857;28;20229;-80
2022/04/02 01:40:37;;;;;;;4.05;2.20;;;4.50;98.90;;;;;;5097337;28;20193;-79
2022/04/02 01:43:04;;;;;;;3.25;2.20;;;4.40;99.10;;;;;;5095801;28;20253;-80
2022/04/02 01:45:31;;;;;;;3.20;2.03;;;4.40;99.40;;;;;;5103885;28;20246;-79
2022/04/02 01:47:57;;;;;;;3.08;2.05;;;4.40;99.50;;;;;;5101763;28;20195;-79
2022/04/02 01:50:24;;;;;;;3.42;2.33;;;4.50;99.30;;;;;;5111223;28;20293;-80
2022/04/02 01:52:51;;;;;;;3.55;2.55;;;4.40;99.30;;;;;;5095377;28;20252;-79
2022/04/02 01:55:18;;;;;;;5.13;2.58;;;4.50;99.40;;;;;;5101235;28;20650;-79
2022/04/02 01:57:47;;;;;;;4.75;2.80;;;4.50;99.50;;;;;;5104334;28;20217;-80
2022/04/02 02:00:15;;;;;;;8.02;3.45;;;4.40;99.40;;;;;;5098668;28;20203;-80
2022/04/02 02:02:42;;;;;;;4.55;2.40;;;4.40;99.60;;;;;;5088433;28;20223;-79
2022/04/02 02:05:10;;;;;;;5.32;2.72;;;4.40;99.70;;;;;;5101680;28;20203;-82
2022/04/02 02:07:37;;;;;;;3.78;3.22;;;4.50;99.60;;;;;;5077153;28;20258;-81
2022/04/02 02:10:04;;;;;;;7.60;2.60;;;4.50;99.40;;;;;;5087383;28;20769;-79
2022/04/02 02:12:31;;;;;;;5.40;3.13;;;4.50;99.50;;;;;;5102690;28;20297;-80
2022/04/02 02:14:59;;;;;;;6.18;2.60;;;4.40;99.50;;;;;;5085342;28;20272;-80
2022/04/02 02:17:26;;;;;;;3.50;2.35;;;4.60;99.80;;;;;;5095083;28;20295;-78
2022/04/02 02:19:54;;;;;;;5.00;3.33;;;4.50;99.70;;;;;;5098253;28;20342;-79
2022/04/02 02:22:21;;;;;;;4.25;2.40;;;4.50;99.50;;;;;;5086782;28;20252;-80
2022/04/02 02:24:48;;;;;;;6.93;3.17;;;4.50;99.70;;;;;;5087437;28;20313;-79
2022/04/02 02:27:14;;;;;;;5.20;2.88;;;4.40;99.80;;;;;;5089190;28;20688;-79
2022/04/02 02:29:41;;;;;;;4.95;3.58;;;4.50;99.90;;;;;;5097598;28;20257;-81
2022/04/02 02:32:10;;;;;;;7.90;2.95;;;4.40;99.90;;;;;;5087564;28;20771;-81
2022/04/02 02:37:21;;;;;;;4.70;2.20;;;4.40;99.90;;;;;;5100424;28;20182;-80
2022/04/02 02:39:48;;;;;;;3.75;2.45;;;4.40;99.90;;;;;;5102052;28;20253;-81
2022/04/02 02:42:15;;;;;;;7.97;3.10;;;4.50;99.90;;;;;;5096438;28;20262;-80
2022/04/02 02:44:41;;;;;;;3.92;2.58;;;4.50;99.90;;;;;;5098268;28;20201;-78
2022/04/02 02:47:11;;;;;;;4.95;2.88;;;4.40;99.90;;;;;;5097057;28;20250;-79
2022/04/02 02:49:39;;;;;;;2.85;2.42;;;4.50;99.90;;;;;;5084402;28;20219;-79
2022/04/02 02:52:07;;;;;;;5.57;2.15;;;4.50;99.90;;;;;;5082291;28;20261;-80
2022/04/02 02:54:33;;;;;;;5.10;2.63;;;4.50;99.90;;;;;;5090462;28;20265;-82
2022/04/02 02:57:00;;;;;;;3.22;2.53;;;4.50;99.90;;;;;;5093982;28;20417;-81
2022/04/02 02:59:27;;;;;;;10.27;3.28;;;4.40;99.90;;;;;;5092950;28;20289;-80
2022/04/02 03:01:54;;;;;;;3.92;2.83;;;4.60;99.90;;;;;;5080268;28;20313;-81
2022/04/02 03:04:23;;;;;;;2.90;2.25;;;4.50;99.90;;;;;;5082237;28;20614;-77
2022/04/02 03:06:50;;;;;;;4.00;2.85;;;4.50;99.90;;;;;;5093502;28;20632;-78
2022/04/02 03:09:17;;;;;;;3.97;2.85;;;4.50;99.90;;;;;;5086240;28;20213;-80
2022/04/02 03:11:44;;;;;;;5.82;2.90;;;4.60;99.90;;;;;;5086173;28;20711;-82
2022/04/02 03:14:11;;;;;;;7.53;3.60;;;4.50;99.90;;;;;;5079907;28;20244;-81
2022/04/02 03:16:38;;;;;;;4.15;3.13;;;4.40;99.90;;;;;;5083081;28;20206;-80
2022/04/02 03:19:06;;;;;;;5.22;2.60;;;4.40;99.90;;;;;;5085765;28;20199;-80
2022/04/02 03:21:35;;;;;;;4.65;2.53;;;4.40;99.90;;;;;;5087851;28;20202;-81
2022/04/02 03:24:02;;;;;;;5.63;3.17;;;4.60;99.90;;;;;;5085070;28;20285;-78
2022/04/02 03:26:29;;;;;;;4.15;2.22;;;4.40;99.90;;;;;;5092284;28;20657;-80
2022/04/02 03:28:56;;;;;;;5.05;2.65;;;4.40;99.90;;;;;;5089811;28;20297;-80
2022/04/02 03:31:23;;;;;;;10.98;3.00;;;4.40;99.90;;;;;;5087672;28;20227;-81
2022/04/02 03:33:50;;;;;;;4.93;3.08;;;4.30;99.90;;;;;;5081088;28;20256;-79
2022/04/02 03:36:17;;;;;;;5.20;2.78;;;4.40;99.90;;;;;;5084948;28;20642;-79
2022/04/02 03:38:45;;;;;;;4.28;3.08;;;4.30;99.90;;;;;;5088872;28;20227;-80
2022/04/02 03:41:13;;;;;;;5.05;3.00;;;4.30;99.90;;;;;;5090795;28;20238;-79
2022/04/02 03:43:39;;;;;;;5.05;2.83;;;4.30;99.90;;;;;;5082575;28;20245;-80
2022/04/02 03:48:59;;;;;;;6.80;3.00;;;4.30;99.90;;;;;;5033166;28;20659;-80
2022/04/02 03:51:26;;;;;;;3.97;3.17;;;4.30;99.90;;;;;;5080901;28;20286;-82
2022/04/02 03:53:54;;;;;;;6.00;3.22;;;4.20;99.90;;;;;;5080849;28;20297;-80
2022/04/02 03:56:21;;;;;;;6.75;3.75;;;4.20;99.90;;;;;;5085997;28;20636;-81
2022/04/02 03:58:47;;;;;;;4.10;2.88;;;4.20;99.90;;;;;;5089709;28;20281;-78
2022/04/02 04:01:14;;;;;;;3.53;2.33;;;4.20;99.90;;;;;;5088312;28;20270;-78
2022/04/02 04:03:41;;;;;;;7.43;3.50;;;4.10;99.90;;;;;;5079163;28;20230;-79
2022/04/02 04:06:10;;;;;;;3.85;3.15;;;4.10;99.90;;;;;;5089022;28;20274;-78
2022/04/02 04:08:37;;;;;;;6.90;3.08;;;4.10;99.90;;;;;;5079221;28;20203;-81
2022/04/02 04:11:05;;;;;;;7.05;3.50;;;4.10;99.90;;;;;;5079146;28;20305;-81
2022/04/02 04:13:32;;;;;;;5.45;3.22;;;4.00;99.90;;;;;;5085725;28;20277;-81
2022/04/02 04:16:00;;;;;;;6.43;2.92;;;4.00;99.90;;;;;;5082001;28;20262;-81
2022/04/02 04:18:27;;;;;;;3.72;3.00;;;4.00;99.90;;;;;;5081693;28;20551;-82
2022/04/02 04:20:54;;;;;;;3.10;2.58;;;4.00;99.90;;;;;;5098134;28;20204;-79
2022/04/02 04:23:22;;;;;;;4.20;3.38;;;4.00;99.90;;;;;;5082993;28;20710;-80
2022/04/02 04:25:48;;;;;;;3.50;2.95;;;4.00;99.90;;;;;;5087288;28;20223;-79
2022/04/02 04:28:17;;;;;;;5.05;3.15;;;4.00;99.90;;;;;;5089727;28;20203;-79
2022/04/02 04:30:44;;;;;;;5.78;3.80;;;4.00;99.90;;;;;;5087361;28;20233;-81
2022/04/02 04:33:11;;;;;;;5.20;3.35;;;4.00;99.90;;;;;;5084709;28;20287;-80
2022/04/02 04:35:38;;;;;;;4.35;3.33;;;4.00;99.90;;;;;;5087879;28;20656;-79
2022/04/02 04:38:04;;;;;;;5.30;3.60;;;4.00;99.90;;;;;;5083120;28;20214;-80
2022/04/02 04:40:31;;;;;;;6.32;3.30;;;4.00;99.90;;;;;;5084864;28;20262;-82
2022/04/02 04:42:58;;;;;;;5.30;2.97;;;4.00;99.90;;;;;;5083650;28;20226;-80
2022/04/02 04:45:26;;;;;;;5.72;3.85;;;4.00;99.90;;;;;;5077420;28;20209;-78
2022/04/02 04:47:53;;;;;;;6.20;3.42;;;4.00;99.90;;;;;;5085008;28;20226;-79
2022/04/02 04:50:20;;;;;;;5.68;3.38;;;4.00;99.90;;;;;;5076817;28;20228;-80
2022/04/02 04:52:47;;;;;;;4.18;3.53;;;4.00;99.90;;;;;;5084370;28;20261;-79
2022/04/02 04:55:14;;;;;;;4.00;2.92;;;4.00;99.90;;;;;;5102153;28;20672;-80
2022/04/02 04:57:40;;;;;;;5.35;3.80;;;4.00;99.90;;;;;;5087820;28;20262;-81
2022/04/02 05:00:08;;;;;;;5.85;3.45;;;3.90;99.90;;;;;;5090333;28;20229;-81
2022/04/02 05:02:37;;;;;;;4.18;2.60;;;3.90;99.90;;;;;;5086304;28;20258;-80
2022/04/02 05:05:04;;;;;;;2.80;2.40;;;3.90;99.90;;;;;;5091487;28;20209;-79
2022/04/02 05:07:31;;;;;;;6.32;3.65;;;3.80;99.90;;;;;;5108245;28;20209;-81
2022/04/02 05:09:58;;;;;;;6.28;3.92;;;3.80;99.90;;;;;;5105979;28;20226;-78
2022/04/02 05:12:24;;;;;;;8.00;3.88;;;3.80;99.90;;;;;;5107758;28;20261;-78
2022/04/02 05:14:51;;;;;;;6.03;3.88;;;3.80;99.90;;;;;;5096529;28;20695;-80
2022/04/02 05:17:18;;;;;;;4.28;3.42;;;3.80;99.90;;;;;;5081745;28;20195;-80
2022/04/02 05:19:47;;;;;;;5.75;3.72;;;3.70;99.90;;;;;;5083276;28;20297;-81
2022/04/02 05:22:14;;;;;;;4.07;3.25;;;3.70;99.90;;;;;;5083346;28;20232;-81
2022/04/02 05:24:40;;;;;;;5.15;4.07;;;3.70;99.90;;;;;;5082995;28;20266;-81
2022/04/02 05:27:07;;;;;;;3.78;3.00;;;3.70;99.90;;;;;;5093573;28;20289;-81
2022/04/02 05:29:37;;;;;;;8.13;4.05;;;3.70;99.90;;;;;;5088517;28;20628;-81
2022/04/02 05:32:04;;;;;;;8.38;4.78;;;3.90;99.90;;;;;;5093214;28;20510;-80
2022/04/02 05:34:31;;;;;;;4.65;3.30;;;3.80;99.90;;;;;;5089231;28;20633;-80
2022/04/02 05:36:59;;;;;;;7.78;3.90;;;3.80;99.90;;;;;;5083627;28;20230;-79
2022/04/02 05:39:26;;;;;;;7.28;3.92;;;3.80;99.90;;;;;;5095878;28;20302;-79
2022/04/02 05:41:53;;;;;;;11.20;4.57;;;3.90;99.90;;;;;;5091516;28;20268;-80
2022/04/02 05:44:20;;;;;;;5.53;3.58;;;3.90;99.90;;;;;;5088887;28;20725;-79
2022/04/02 05:46:47;;;;;;;5.25;4.30;;;3.90;99.90;;;;;;5083609;28;20203;-81
2022/04/02 05:49:14;;;;;;;6.18;3.55;;;4.10;99.90;;;;;;5082600;28;20609;-80
2022/04/02 05:51:41;;;;;;;5.93;4.00;;;4.00;99.90;;;;;;5096287;28;20224;-79
2022/04/02 05:54:09;;;;;;;5.90;3.45;;;4.10;99.90;;;;;;5094327;28;20205;-82
2022/04/02 05:56:37;;;;;;;5.47;3.92;;;4.20;99.90;;;;;;5083615;28;20669;-81
2022/04/02 05:59:05;;;;;;;5.40;3.95;;;4.30;99.90;;;;;;5089509;28;20269;-80
2022/04/02 06:01:33;;;;;;;5.43;3.70;;;4.40;99.90;;;;;;5085056;28;20292;-80
2022/04/02 06:04:00;;;;;;;4.50;3.70;;;4.60;99.90;;;;;;5087537;28;20294;-81
2022/04/02 06:06:26;;;;;;;5.18;3.60;;;4.70;99.90;;;;;;5088711;28;20365;-81
2022/04/02 06:08:53;;;;;;;5.45;3.75;;;4.80;99.90;;;;;;5084398;28;20292;-80
2022/04/02 06:11:21;;;;;;;8.27;3.75;;;4.90;99.90;;;;;;5082320;28;20286;-81
2022/04/02 06:13:48;;;;;;;7.93;3.33;;;5.10;99.90;;;;;;5081227;28;20691;-80
2022/04/02 06:16:16;;;;;;;4.25;3.20;;;5.20;99.90;;;;;;5084964;28;20198;-79
2022/04/02 06:18:43;;;;;;;3.83;3.30;;;5.50;99.90;;;;;;5082084;28;20209;-80
2022/04/02 06:21:11;;;;;;;4.80;3.33;;;5.70;99.90;;;;;;5084294;28;20290;-79
2022/04/02 06:23:38;;;;;;;4.22;3.00;;;5.90;99.60;;;;;;5083034;28;20223;-80
2022/04/02 06:26:05;;;;;;;5.00;3.78;;;6.10;98.70;;;;;;5087947;28;20266;-80
2022/04/02 06:28:33;;;;;;;4.63;3.58;;;6.30;98.20;;;;;;5083340;28;20204;-80
2022/04/02 06:31:00;;;;;;;7.88;3.88;;;6.60;97.50;;;;;;5087953;28;20222;-82
2022/04/02 06:33:27;;;;;;;9.05;4.60;;;6.90;96.70;;;;;;5090778;28;20245;-82
2022/04/02 06:35:54;;;;;;;5.57;3.78;;;7.30;95.80;;;;;;5095115;28;20279;-81
2022/04/02 06:38:20;;;;;;;6.85;2.80;;;7.50;94.60;;;;;;5075127;28;20284;-81
2022/04/02 06:40:47;;;;;;;5.40;3.70;;;7.80;93.90;;;;;;5087353;28;20437;-81
2022/04/02 06:43:14;;;;;;;6.28;4.38;;;8.10;93.30;;;;;;5085858;28;20533;-81
2022/04/02 06:45:43;;;;;;;3.40;2.78;;;8.40;92.80;;;;;;5083992;28;20224;-81
2022/04/02 06:48:10;;;;;;;2.65;2.17;;;8.60;92.20;;;;;;5082657;28;20248;-79
2022/04/02 06:50:37;;;;;;;5.38;3.00;;;8.90;91.90;;;;;;5081493;28;20991;-81
2022/04/02 06:53:04;;;;;;;4.80;3.33;;;9.20;91.40;;;;;;5087095;28;20326;-80
2022/04/02 06:55:32;;;;;;;6.13;2.70;;;9.30;90.80;;;;;;5091099;28;20186;-82
2022/04/02 06:58:00;;;;;;;4.20;3.80;;;9.40;90.30;;;;;;5096110;28;20199;-81
2022/04/02 07:00:27;;;;;;;4.40;2.90;;;9.50;89.80;;;;;;5098036;28;20186;-81
2022/04/02 07:02:55;;;;;;;3.10;2.75;;;9.70;89.30;;;;;;5097728;28;20266;-81
2022/04/02 07:05:22;;;;;;;3.88;2.50;;;10.00;86.60;;;;;;5090727;28;20218;-80
2022/04/02 07:07:50;;;;;;;4.88;2.50;;;10.10;84.70;;;;;;5092216;28;20234;-82
2022/04/02 07:10:17;;;;;;;4.85;3.22;;;10.30;83.40;;;;;;5094737;28;20226;-82
2022/04/02 07:12:47;;;;;;;2.65;2.28;;;10.60;82.50;;;;;;5093765;28;20285;-83
2022/04/02 07:15:14;;;;;;;3.65;2.70;;;10.80;80.70;;;;;;5102311;28;20299;-85
2022/04/02 07:17:42;;;;;;;4.20;2.50;;;10.90;80.20;;;;;;5101432;28;20234;-85
2022/04/02 07:20:13;;;;;;;6.72;2.90;;;11.20;78.00;;;;;;5086936;28;20292;-83
2022/04/02 07:22:43;;;;;;;3.40;2.40;;;11.40;76.50;;;;;;5101509;28;20235;-82
2022/04/02 07:25:12;;;;;;;2.15;1.90;;;11.70;75.20;;;;;;5098689;28;20227;-84
2022/04/02 07:27:40;;;;;;;4.63;2.40;;;12.00;74.30;;;;;;5093797;28;20214;-86
2022/04/02 07:33:15;;;;;;;4.20;2.90;;;12.10;72.90;;;;;;5092504;22;20244;-68
2022/04/02 07:35:53;;;;;;;3.22;2.80;;;12.30;72.50;;;;;;5100593;28;20672;-68
2022/04/02 07:38:22;;;;;;;3.85;2.72;;;12.20;73.10;;;;;;5106511;28;20228;-65
2022/04/02 07:40:55;;;;;;;5.80;2.67;;;12.50;73.20;;;;;;5092768;28;20300;-66
2022/04/02 07:43:31;;;;;;;4.57;3.22;;;12.80;72.30;;;;;;5093691;28;20194;-67
2022/04/02 07:46:04;;;;;;;3.40;2.10;;;13.30;71.50;;;;;;5075732;28;20563;-68
2022/04/02 07:48:32;;;;;;;4.88;2.97;;;13.20;70.50;;;;;;5103892;28;20254;-67
2022/04/02 07:51:06;;;;;;;4.15;3.05;;;13.20;69.80;;;;;;5096742;28;20229;-66
2022/04/02 07:53:40;;;;;;;4.10;2.63;;;13.50;70.00;;;;;;5099228;28;20648;-67
2022/04/02 07:56:09;;;;;;;7.65;2.67;;;13.50;69.10;;;;;;5077386;28;20198;-67
2022/04/02 07:58:42;;;;;;;7.60;3.05;;;13.50;67.90;;;;;;5092441;28;20660;-67
2022/04/02 08:01:15;;;;;;;3.63;2.85;;;13.70;68.70;;;;;;5105238;28;20251;-63
2022/04/02 08:03:44;;;;;;;2.92;2.00;;;13.70;67.70;;;;;;5092619;28;20785;-67
2022/04/02 08:06:14;;;;;;;3.65;2.50;;;13.60;67.20;;;;;;5097605;28;20199;-67
2022/04/02 08:08:42;;;;;;;2.47;1.80;;;14.00;67.60;;;;;;5100450;28;20539;-70
2022/04/02 08:11:09;;;;;;;3.65;2.40;;;14.20;62.30;;;;;;5098892;27;20218;-66
2022/04/02 08:13:37;;;;;;;7.47;2.90;;;14.10;62.80;;;;;;5093471;27;20226;-65
2022/04/02 08:16:05;;;;;;;5.25;2.10;;;14.50;62.40;;;;;;5098050;28;20721;-65
2022/04/02 08:18:32;;;;;;;2.97;2.30;;;14.90;62.30;;;;;;5094437;27;20280;-65
2022/04/02 08:20:59;;;;;;;2.15;1.80;;;15.40;58.90;;;;;;5093292;28;20242;-67
2022/04/02 08:23:29;;;;;;;3.78;2.20;;;15.60;57.60;;;;;;5102805;27;20281;-68
2022/04/02 08:26:06;;;;;;;3.53;2.20;;;15.80;57.40;;;;;;5103859;28;20262;-66
2022/04/02 08:28:45;;;;;;;3.77;2.30;;;16.50;56.90;;;;;;5087604;28;20471;-67
2022/04/02 08:31:21;;;;;;;4.13;1.83;;;17.20;55.40;;;;;;5091764;28;20570;-67
2022/04/02 08:34:00;;;;;;;3.07;2.30;;;17.20;50.80;;;;;;5086357;28;20537;-67
2022/04/02 08:36:32;;;;;;;3.57;1.70;;;17.50;49.80;;;;;;5079749;28;20925;-66
2022/04/02 08:39:04;;;;;;;2.97;1.67;;;17.70;50.80;;;;;;5091985;28;20527;-68
2022/04/02 08:42:13;;;;;;;2.95;1.70;;;18.60;48.50;;;;;;5102207;28;20513;-66
2022/04/02 08:45:09;;;;;;;4.40;2.43;;;19.10;47.30;;;;;;5094318;28;20695;-66
2022/04/02 08:48:21;;;;;;;2.57;1.97;;;20.10;45.70;;;;;;5090086;28;20484;-66
2022/04/02 08:50:49;;;;;;;5.13;2.23;;;20.20;44.30;;;;;;5089679;28;20802;-67
2022/04/02 08:53:19;;;;;;;3.40;2.13;;;20.40;42.70;;;;;;5106966;28;20439;-68
2022/04/02 08:55:51;;;;;;;2.60;1.83;;;20.10;39.80;;;;;;5103565;28;20859;-68
2022/04/02 08:58:26;;;;;;;2.37;1.60;;;20.00;40.00;;;;;;5111041;28;20483;-68
2022/04/02 09:01:06;;;;;;;2.43;1.60;;;19.40;39.60;;;;;;5098514;28;20471;-66
2022/04/02 09:04:21;;;;;;;3.90;1.53;;;18.00;40.50;;;;;;5112106;28;20529;-67
2022/04/02 09:07:28;;;;;;;6.53;1.87;;;17.60;42.20;;;;;;5091520;28;20855;-66
2022/04/02 09:10:40;;;;;;;3.10;2.30;;;17.70;41.50;;;;;;5090169;28;20984;-69
2022/04/02 09:13:39;;;;;;;5.83;2.13;;;16.90;40.90;;;;;;5042320;28;20890;-68
2022/04/02 09:16:07;;;;;;;2.07;1.87;;;17.40;41.60;;;;;;5104207;28;20864;-68
2022/04/02 09:18:40;;;;;;;3.80;1.90;;;17.30;41.10;;;;;;5100722;28;20840;-65
2022/04/02 09:21:35;;;;;;;2.40;1.40;;;17.30;41.50;;;;;;5098267;28;20442;-66
2022/04/02 09:24:05;;;;;;;5.50;1.87;;;18.20;40.60;;;;;;5111706;28;20547;-67
2022/04/02 09:27:18;;;;;;;2.00;1.80;;;17.80;39.40;;;;;;5101858;28;20432;-66
2022/04/02 09:30:03;;;;;;;2.07;1.57;;;17.90;39.50;;;;;;5066852;27;20933;-65
2022/04/02 09:33:08;;;;;;;2.40;1.87;;;16.80;41.20;;;;;;5099753;27;20852;-67
2022/04/02 09:36:03;;;;;;;2.75;1.67;;;15.70;41.20;;;;;;5098282;27;20463;-66
2022/04/02 09:39:01;;;;;;;3.22;1.67;;;15.30;42.60;;;;;;5075310;27;20896;-68
2022/04/02 09:41:52;;;;;;;2.63;1.70;;;14.40;43.50;;;;;;5091816;28;20222;-64
2022/04/02 09:44:36;;;;;;;2.30;1.67;;;14.60;43.20;;;;;;5103678;27;20217;-68
2022/04/02 09:50:12;;;;;;;1.83;1.47;;;16.80;41.40;;;;;;5089466;27;20269;-68
2022/04/02 09:52:47;;;;;;;2.93;1.30;;;17.00;40.30;;;;;;5106272;28;20468;-67
2022/04/02 09:55:16;;;;;;;2.33;1.80;;;17.80;39.00;;;;;;5101650;28;20478;-67
2022/04/02 09:58:13;;;;;;;3.33;2.00;;;17.60;36.60;;;;;;5094650;28;20440;-67
2022/04/02 10:00:52;;;;;;;1.77;1.30;;;17.10;36.30;;;;;;5064431;28;20291;-66
2022/04/02 10:03:32;;;;;;;2.83;1.70;;;17.40;37.60;;;;;;5113450;28;20447;-67
2022/04/02 10:06:25;;;;;;;2.10;1.30;;;17.80;35.90;;;;;;5105620;28;20457;-67
2022/04/02 10:09:08;;;;;;;2.10;1.20;;;17.40;35.30;;;;;;5088169;28;20443;-68
2022/04/02 10:11:39;;;;;;;3.60;1.73;;;16.90;36.00;;;;;;5103575;28;20507;-67
2022/04/02 10:14:09;;;;;;;2.83;1.73;;;16.10;35.70;;;;;;5110207;28;20217;-67
2022/04/02 10:16:37;;;;;;;1.75;1.15;;;14.90;36.60;;;;;;5104673;28;20206;-66
2022/04/02 10:19:11;;;;;;;1.40;1.17;;;14.30;38.40;;;;;;5103763;27;20258;-67
2022/04/02 10:21:40;;;;;;;2.25;1.63;;;14.20;39.30;;;;;;5108863;28;20194;-67
2022/04/02 10:24:22;;;;;;;1.70;1.30;;;14.70;39.70;;;;;;5103789;28;20223;-67
2022/04/02 10:26:51;;;;;;;3.88;1.80;;;15.40;39.50;;;;;;5109570;28;20202;-67
2022/04/02 10:29:31;;;;;;;1.40;1.10;;;16.00;39.20;;;;;;5100071;28;20207;-68
2022/04/02 10:32:02;;;;;;;2.47;1.48;;;16.40;38.70;;;;;;5082528;28;20228;-68
2022/04/02 10:34:38;;;;;;;1.98;1.30;;;15.80;38.00;;;;;;5100301;28;20221;-66
2022/04/02 10:37:10;;;;;;;6.35;1.80;;;14.60;37.50;;;;;;5087714;28;20616;-68
2022/04/02 10:39:54;;;;;;;2.70;1.55;;;13.80;38.50;;;;;;5109987;28;20194;-65
2022/04/02 10:42:35;;;;;;;2.05;1.40;;;13.50;39.80;;;;;;5104223;28;20197;-67
2022/04/02 10:45:05;;;;;;;2.72;1.45;;;13.70;39.90;;;;;;5091873;28;20552;-66
2022/04/02 10:47:39;;;;;;;2.15;1.60;;;12.90;39.80;;;;;;5109835;28;20198;-64
2022/04/02 10:50:10;;;;;;;3.30;2.53;;;12.50;40.70;;;;;;5093248;28;20298;-67
2022/04/02 10:52:39;;;;;;;1.88;1.50;;;12.50;40.90;;;;;;5097797;28;20229;-66
2022/04/02 10:55:06;;;;;;;4.25;1.85;;;12.40;40.30;;;;;;5113540;28;20229;-67
2022/04/02 10:57:34;;;;;;;1.73;1.17;;;12.60;42.30;;;;;;5100191;28;20198;-68
2022/04/02 11:00:04;;;;;;;2.38;1.52;;;13.00;43.40;;;;;;5100790;28;20292;-67
2022/04/02 11:02:52;;;;;;;2.17;1.70;;;13.30;42.50;;;;;;5100231;28;20569;-67
2022/04/02 11:05:22;;;;;;;2.33;1.98;;;13.70;41.80;;;;;;5100328;28;20582;-66
2022/04/02 11:07:51;;;;;;;2.70;1.40;;;13.60;41.70;;;;;;5102703;28;20196;-68
2022/04/02 11:10:19;;;;;;;1.80;1.20;;;13.70;41.50;;;;;;5095470;28;20240;-66
2022/04/02 11:12:48;;;;;;;1.70;1.20;;;13.60;40.80;;;;;;5093454;28;20216;-69
2022/04/02 11:15:19;;;;;;;3.20;1.75;;;13.50;40.10;;;;;;5107431;28;20259;-66
2022/04/02 11:17:47;;;;;;;2.60;1.30;;;12.90;39.50;;;;;;5105223;28;20207;-66
2022/04/02 11:20:15;;;;;;;5.18;1.60;;;12.00;39.60;;;;;;5104640;27;20213;-67
2022/04/02 11:23:03;;;;;;;2.60;1.80;;;11.60;41.00;;;;;;5104633;28;20281;-67
2022/04/02 11:25:35;;;;;;;2.05;1.50;;;11.20;41.80;;;;;;5083818;28;20222;-68
2022/04/02 11:28:11;;;;;;;1.90;1.05;;;11.10;42.90;;;;;;5108116;28;20282;-65
2022/04/02 11:30:40;;;;;;;1.70;1.35;;;11.30;42.20;;;;;;5091848;28;20204;-65
2022/04/02 11:33:09;;;;;;;1.90;1.15;;;11.20;41.60;;;;;;5108423;27;21354;-69
2022/04/02 11:35:41;;;;;;;2.35;1.10;;;11.10;43.20;;;;;;5101386;28;20282;-69
2022/04/02 11:38:34;;;;;;;2.60;1.55;;;11.20;42.20;;;;;;5096927;28;20199;-64
2022/04/02 11:41:06;;;;;;;2.05;1.33;;;11.50;44.60;;;;;;5080116;28;20272;-67
2022/04/02 11:43:41;;;;;;;2.80;2.30;;;11.50;46.70;;;;;;5112984;28;20205;-68
2022/04/02 11:46:10;;;;;;;3.28;2.28;;;11.50;47.90;;;;;;5103046;28;20662;-69
2022/04/02 11:48:39;;;;;;;2.25;1.17;;;11.30;48.60;;;;;;5098647;28;20251;-67
2022/04/02 11:51:14;;;;;;;2.65;1.50;;;11.30;48.60;;;;;;5105367;28;20201;-66
2022/04/02 11:53:44;;;;;;;2.05;1.58;;;11.10;47.50;;;;;;5111743;27;20222;-67
2022/04/02 11:56:28;;;;;;;2.50;1.40;;;10.90;46.90;;;;;;5102732;28;20288;-68
2022/04/02 11:58:57;;;;;;;3.47;1.80;;;11.10;47.70;;;;;;5109680;27;20300;-68
2022/04/02 12:01:24;;;;;;;2.38;1.50;;;11.50;46.80;;;;;;5105487;28;20194;-67
2022/04/02 12:04:12;;;;;;;2.47;1.70;;;11.40;45.60;;;;;;5104562;28;20352;-65
2022/04/02 12:06:39;;;;;;;1.67;1.25;;;11.10;45.10;;;;;;5103655;28;20190;-66
2022/04/02 12:09:16;;;;;;;1.73;1.00;;;10.60;42.10;;;;;;5109723;28;20674;-66
2022/04/02 12:11:44;;;;;;;2.60;1.38;;;10.60;43.40;;;;;;5101983;28;20568;-66
2022/04/02 12:14:12;;;;;;;1.63;1.33;;;10.70;43.10;;;;;;5101740;28;20226;-67
2022/04/02 12:16:41;;;;;;;2.97;1.42;;;11.00;43.20;;;;;;5105145;28;20635;-68
2022/04/02 12:19:12;;;;;;;5.00;1.80;;;11.10;45.40;;;;;;5105607;28;20637;-70
2022/04/02 12:21:43;;;;;;;3.30;1.10;;;11.20;47.20;;;;;;5095417;28;20273;-67
2022/04/02 12:24:13;;;;;;;2.60;1.50;;;11.20;47.90;;;;;;5097262;27;20245;-68
2022/04/02 12:26:46;;;;;;;3.05;1.45;;;11.10;47.50;;;;;;5095794;28;20600;-69
2022/04/02 12:29:18;;;;;;;3.15;1.55;;;11.00;47.60;;;;;;5106312;27;20273;-67
2022/04/02 12:31:51;;;;;;;1.98;1.10;;;11.10;47.40;;;;;;5094320;28;20293;-69
2022/04/02 12:34:21;;;;;;;2.75;1.40;;;11.20;44.30;;;;;;5110829;28;20544;-70
2022/04/02 12:37:00;;;;;;;2.00;1.25;;;11.10;41.30;;;;;;5109203;28;20289;-70
2022/04/02 12:39:28;;;;;;;3.95;1.00;;;11.10;41.30;;;;;;5104415;28;20200;-68
2022/04/02 12:41:56;;;;;;;2.35;1.40;;;11.30;41.50;;;;;;5112682;28;20210;-67
2022/04/02 12:44:24;;;;;;;1.70;1.25;;;11.10;41.00;;;;;;5105811;28;20222;-67
2022/04/02 12:46:52;;;;;;;3.42;1.42;;;10.80;41.60;;;;;;5095729;28;20201;-69
2022/04/02 12:49:33;;;;;;;1.55;1.00;;;10.60;42.10;;;;;;5101165;28;20203;-69
2022/04/02 12:52:16;;;;;;;2.25;1.10;;;10.30;40.80;;;;;;5102342;28;20214;-69
2022/04/02 12:54:47;;;;;;;4.65;0.98;;;10.50;40.20;;;;;;5100299;28;20226;-68
2022/04/02 12:57:16;;;;;;;2.72;0.80;;;10.70;39.30;;;;;;5094224;28;20201;-69
2022/04/02 12:59:44;;;;;;;4.13;1.30;;;11.00;39.10;;;;;;5109158;28;20204;-69
2022/04/02 13:02:17;;;;;;;1.92;1.45;;;11.20;40.00;;;;;;5118741;27;20246;-69
2022/04/02 13:04:53;;;;;;;3.67;1.52;;;11.20;40.70;;;;;;5102252;28;20265;-68
2022/04/02 13:07:22;;;;;;;1.75;1.13;;;11.00;40.10;;;;;;5105865;27;20200;-68
2022/04/02 13:09:51;;;;;;;1.55;1.30;;;10.80;40.10;;;;;;5119020;27;20682;-71
2022/04/02 13:12:22;;;;;;;2.85;1.33;;;10.60;40.30;;;;;;5095891;28;20221;-72
2022/04/02 13:14:57;;;;;;;4.63;1.30;;;10.70;40.30;;;;;;5101465;28;20767;-67
2022/04/02 13:17:27;;;;;;;7.18;1.70;;;10.90;41.10;;;;;;5107824;28;20217;-70
2022/04/02 13:22:47;;;;;;;2.03;1.63;;;11.10;42.60;;;;;;5115039;28;20244;-70
2022/04/02 13:25:15;;;;;;;2.65;1.30;;;11.00;42.00;;;;;;5097758;28;20684;-69
2022/04/02 13:28:10;;;;;;;3.35;1.33;;;10.80;41.80;;;;;;5109686;28;20614;-69
2022/04/02 13:30:39;;;;;;;1.58;1.17;;;10.80;41.50;;;;;;5093049;28;20206;-69